Time;durP1;ratioP1;P1;durP2;ratioP2;P2;SDS_P1;SDS_P2;PMS_P1;PMS_P2;Temp;Humidity;BMP_temperature;BMP_pressure;BME280_temperature;BME280_humidity;BME280_pressure;Samples;Min_cycle;Max_cycle;Signal;HPM_P1;HPM_P2
2023/04/13 00:00:09;;;;;;;5.15;2.10;;;6.70;99.90;;;;;;5034116;28;20127;-43
2023/04/13 00:02:38;;;;;;;3.97;1.80;;;6.80;99.90;;;;;;5036877;28;20719;-42
2023/04/13 00:05:09;;;;;;;4.57;1.88;;;6.90;99.90;;;;;;5036359;28;20041;-36
2023/04/13 00:07:39;;;;;;;3.65;2.40;;;6.90;99.90;;;;;;5036501;28;20399;-43
2023/04/13 00:10:07;;;;;;;7.20;2.58;;;6.80;99.90;;;;;;5036755;28;20037;-36
2023/04/13 00:12:34;;;;;;;4.65;2.30;;;6.70;99.90;;;;;;5036705;28;20052;-39
2023/04/13 00:15:00;;;;;;;8.68;3.15;;;6.60;99.90;;;;;;5035493;28;20049;-39
2023/04/13 00:17:26;;;;;;;4.50;2.42;;;6.50;99.90;;;;;;5035934;28;20064;-47
2023/04/13 00:19:52;;;;;;;3.90;1.90;;;6.40;99.90;;;;;;5036021;28;20056;-45
2023/04/13 00:22:19;;;;;;;4.43;1.75;;;6.40;99.90;;;;;;5036681;28;20037;-44
2023/04/13 00:24:44;;;;;;;4.80;1.90;;;6.30;99.90;;;;;;5036659;28;20045;-37
2023/04/13 00:27:10;;;;;;;4.70;2.70;;;6.30;99.90;;;;;;5035402;28;20049;-36
2023/04/13 00:29:37;;;;;;;3.50;1.80;;;6.30;99.90;;;;;;5043716;28;20491;-42
2023/04/13 00:32:03;;;;;;;3.42;1.63;;;6.20;99.90;;;;;;5030647;28;20049;-42
2023/04/13 00:34:29;;;;;;;3.30;1.70;;;6.20;99.90;;;;;;5053410;28;20056;-44
2023/04/13 00:36:55;;;;;;;4.75;1.42;;;6.20;99.90;;;;;;5039377;28;20048;-36
2023/04/13 00:39:22;;;;;;;4.00;1.73;;;6.10;99.90;;;;;;5038678;28;20115;-40
2023/04/13 00:41:50;;;;;;;2.42;1.17;;;6.10;99.90;;;;;;5054299;28;20500;-42
2023/04/13 00:44:20;;;;;;;3.08;1.23;;;6.10;99.90;;;;;;5054907;28;20146;-41
2023/04/13 00:46:49;;;;;;;4.43;1.42;;;6.10;99.90;;;;;;5037700;28;20056;-44
2023/04/13 00:49:16;;;;;;;4.00;1.50;;;6.10;99.90;;;;;;5040131;28;20552;-40
2023/04/13 00:51:46;;;;;;;4.10;1.67;;;6.00;99.90;;;;;;5038559;28;20128;-36
2023/04/13 00:54:13;;;;;;;5.15;1.83;;;6.00;99.90;;;;;;5038044;28;20041;-38
2023/04/13 00:56:41;;;;;;;3.75;1.83;;;6.00;99.90;;;;;;5038606;28;20056;-38
2023/04/13 00:59:09;;;;;;;3.42;1.48;;;6.00;99.90;;;;;;5038418;28;20052;-39
2023/04/13 01:01:44;;;;;;;3.65;1.40;;;6.00;99.90;;;;;;5038867;28;20045;-41
2023/04/13 01:04:13;;;;;;;3.67;1.40;;;6.00;99.90;;;;;;5043082;28;20642;-36
2023/04/13 01:06:50;;;;;;;4.57;1.77;;;6.00;99.90;;;;;;5036354;28;20044;-37
2023/04/13 01:09:27;;;;;;;4.25;1.60;;;6.00;99.90;;;;;;5027856;28;20049;-45
2023/04/13 01:12:07;;;;;;;5.28;1.77;;;6.00;99.90;;;;;;5038274;28;20120;-37
2023/04/13 01:14:40;;;;;;;4.40;2.00;;;6.00;99.90;;;;;;5041159;28;20100;-39
2023/04/13 01:17:15;;;;;;;5.30;2.30;;;6.00;99.90;;;;;;5027330;28;20049;-41
2023/04/13 01:20:00;;;;;;;4.47;1.67;;;6.00;99.90;;;;;;5022964;28;20118;-40
2023/04/13 01:22:31;;;;;;;3.92;1.63;;;6.00;99.90;;;;;;5054044;28;20110;-45
2023/04/13 01:25:06;;;;;;;3.15;1.50;;;6.00;99.90;;;;;;5018645;28;20049;-39
2023/04/13 01:27:50;;;;;;;4.95;2.05;;;6.00;99.90;;;;;;5021338;28;20056;-44
2023/04/13 01:30:26;;;;;;;5.57;1.83;;;6.00;99.90;;;;;;5053650;28;20152;-42
2023/04/13 01:32:52;;;;;;;6.60;1.90;;;6.00;99.90;;;;;;5038784;28;20051;-41
2023/04/13 01:35:21;;;;;;;3.97;1.73;;;6.00;99.90;;;;;;5026137;28;20038;-41
2023/04/13 01:37:49;;;;;;;3.03;1.85;;;6.00;99.90;;;;;;5038132;28;20067;-43
2023/04/13 01:40:14;;;;;;;4.95;2.10;;;6.00;99.90;;;;;;5024966;28;20380;-36
2023/04/13 01:42:42;;;;;;;6.97;2.38;;;6.00;99.90;;;;;;5038388;28;20041;-35
2023/04/13 01:45:16;;;;;;;5.07;2.55;;;6.00;99.90;;;;;;5037617;28;20116;-35
2023/04/13 01:48:03;;;;;;;4.75;2.20;;;6.00;99.90;;;;;;5029432;28;20041;-37
2023/04/13 01:50:33;;;;;;;3.78;1.90;;;6.00;99.90;;;;;;5036088;28;20095;-45
2023/04/13 01:53:23;;;;;;;4.40;2.15;;;6.00;99.90;;;;;;5037669;28;20498;-38
2023/04/13 01:55:49;;;;;;;3.72;2.70;;;6.10;99.90;;;;;;5038661;28;20136;-41
2023/04/13 01:58:17;;;;;;;3.53;2.03;;;6.10;99.90;;;;;;5036330;28;20296;-36
2023/04/13 02:00:44;;;;;;;4.40;2.05;;;6.10;99.90;;;;;;5036341;28;20056;-36
2023/04/13 02:03:11;;;;;;;4.88;2.45;;;6.10;99.90;;;;;;5032314;28;20049;-36
2023/04/13 02:05:37;;;;;;;8.20;2.00;;;6.10;99.90;;;;;;5026786;28;20323;-41
2023/04/13 02:08:04;;;;;;;5.63;2.13;;;6.10;99.90;;;;;;5035934;28;20096;-36
2023/04/13 02:10:34;;;;;;;2.97;2.05;;;6.10;99.90;;;;;;5037618;28;20049;-37
2023/04/13 02:13:00;;;;;;;8.13;1.92;;;6.10;99.90;;;;;;5038390;28;20191;-36
2023/04/13 02:15:26;;;;;;;6.60;2.17;;;6.10;99.90;;;;;;5038203;28;20051;-43
2023/04/13 02:17:52;;;;;;;3.97;2.53;;;6.10;99.90;;;;;;5037488;28;20049;-43
2023/04/13 02:20:18;;;;;;;5.28;2.10;;;6.10;99.90;;;;;;5036971;28;20404;-38
2023/04/13 02:22:44;;;;;;;3.97;2.10;;;6.10;99.90;;;;;;5037812;28;20155;-39
2023/04/13 02:25:11;;;;;;;3.13;2.10;;;6.10;99.90;;;;;;5037893;28;20441;-36
2023/04/13 02:27:38;;;;;;;3.47;1.98;;;6.10;99.90;;;;;;5035994;28;20063;-40
2023/04/13 02:30:06;;;;;;;5.55;2.22;;;6.10;99.90;;;;;;5036077;28;20041;-39
2023/04/13 02:32:38;;;;;;;6.68;3.15;;;6.10;99.90;;;;;;5038047;28;20075;-39
2023/04/13 02:35:04;;;;;;;5.75;2.20;;;6.10;99.90;;;;;;5037874;28;20037;-41
2023/04/13 02:37:31;;;;;;;5.20;2.00;;;6.10;99.90;;;;;;5037105;28;20076;-37
2023/04/13 02:39:56;;;;;;;4.78;2.17;;;6.10;99.90;;;;;;5037278;28;20059;-39
2023/04/13 02:42:23;;;;;;;3.90;2.00;;;6.10;99.90;;;;;;5038005;28;20044;-40
2023/04/13 02:44:49;;;;;;;2.72;2.13;;;6.10;99.90;;;;;;5037253;28;20092;-36
2023/04/13 02:47:15;;;;;;;3.00;1.73;;;6.10;99.90;;;;;;5036641;28;20128;-42
2023/04/13 02:49:41;;;;;;;3.45;1.92;;;6.10;99.90;;;;;;5036085;28;20044;-41
2023/04/13 02:52:07;;;;;;;2.97;1.83;;;6.10;99.90;;;;;;5035402;28;20323;-43
2023/04/13 02:54:33;;;;;;;2.83;1.98;;;6.10;99.90;;;;;;5036916;28;20052;-42
2023/04/13 02:57:00;;;;;;;2.97;1.83;;;6.10;99.90;;;;;;5035147;28;20049;-37
2023/04/13 02:59:27;;;;;;;3.97;1.90;;;6.10;99.90;;;;;;5035754;28;20052;-45
2023/04/13 03:01:57;;;;;;;5.32;2.20;;;6.10;99.90;;;;;;5036933;28;20127;-40
2023/04/13 03:04:23;;;;;;;6.20;2.30;;;6.10;99.90;;;;;;5036788;28;20420;-38
2023/04/13 03:06:49;;;;;;;4.40;2.22;;;6.10;99.90;;;;;;5036170;28;20045;-37
2023/04/13 03:09:16;;;;;;;4.78;2.20;;;6.20;99.90;;;;;;5036738;28;20505;-43
2023/04/13 03:11:42;;;;;;;3.35;2.05;;;6.10;99.90;;;;;;5036280;28;20457;-37
2023/04/13 03:14:11;;;;;;;5.32;2.83;;;6.20;99.90;;;;;;5037186;28;20049;-42
2023/04/13 03:16:37;;;;;;;3.08;2.10;;;6.10;99.90;;;;;;5023062;28;20219;-40
2023/04/13 03:19:04;;;;;;;3.65;2.28;;;6.10;99.90;;;;;;5051132;28;20052;-45
2023/04/13 03:21:30;;;;;;;3.65;2.28;;;6.10;99.90;;;;;;5028400;28;20041;-36
2023/04/13 03:23:56;;;;;;;4.28;2.40;;;6.10;99.90;;;;;;5029060;28;20041;-44
2023/04/13 03:26:24;;;;;;;4.82;2.35;;;6.10;99.90;;;;;;5036515;28;20040;-45
2023/04/13 03:28:50;;;;;;;5.20;3.30;;;6.10;99.90;;;;;;5023688;28;20387;-35
2023/04/13 03:31:16;;;;;;;3.97;2.78;;;6.10;99.90;;;;;;5036868;28;20155;-41
2023/04/13 03:33:42;;;;;;;3.63;2.35;;;6.20;99.90;;;;;;5022564;28;20052;-42
2023/04/13 03:36:09;;;;;;;3.53;2.30;;;6.10;99.90;;;;;;5036669;28;20041;-36
2023/04/13 03:38:35;;;;;;;3.83;2.53;;;6.10;99.90;;;;;;5037850;28;20103;-39
2023/04/13 03:41:01;;;;;;;4.78;2.40;;;6.20;99.90;;;;;;5036658;28;20041;-40
2023/04/13 03:43:26;;;;;;;4.72;2.55;;;6.10;99.90;;;;;;5037114;28;20037;-38
2023/04/13 03:45:52;;;;;;;3.67;2.25;;;6.10;99.90;;;;;;5037010;28;20056;-45
2023/04/13 03:48:18;;;;;;;4.00;2.58;;;6.10;99.90;;;;;;5035937;28;20049;-37
2023/04/13 03:50:44;;;;;;;4.97;2.65;;;6.10;99.90;;;;;;5036558;28;20049;-37
2023/04/13 03:53:10;;;;;;;4.32;2.30;;;6.10;99.90;;;;;;5035847;28;20118;-36
2023/04/13 03:55:36;;;;;;;4.10;2.42;;;6.10;99.90;;;;;;5036188;28;20057;-41
2023/04/13 03:58:02;;;;;;;2.88;2.33;;;6.00;99.90;;;;;;5034593;28;20314;-43
2023/04/13 04:00:28;;;;;;;5.72;2.42;;;6.00;99.90;;;;;;5035738;28;20047;-36
2023/04/13 04:02:53;;;;;;;3.25;2.33;;;5.90;99.90;;;;;;5033695;28;20040;-38
2023/04/13 04:05:19;;;;;;;4.38;2.60;;;5.80;99.90;;;;;;5050723;28;20068;-41
2023/04/13 04:07:45;;;;;;;3.35;2.20;;;5.70;99.90;;;;;;5034715;28;20677;-36
2023/04/13 04:10:10;;;;;;;5.90;2.58;;;5.60;99.90;;;;;;5039308;28;20047;-36
2023/04/13 04:12:36;;;;;;;4.05;2.20;;;5.60;99.90;;;;;;5040102;28;20242;-45
2023/04/13 04:15:04;;;;;;;3.83;2.50;;;5.50;99.90;;;;;;5055834;28;20468;-36
2023/04/13 04:17:30;;;;;;;3.05;2.63;;;5.40;99.90;;;;;;5039389;28;20186;-39
2023/04/13 04:19:55;;;;;;;4.22;2.40;;;5.40;99.90;;;;;;5055079;28;20626;-43
2023/04/13 04:22:28;;;;;;;4.65;2.70;;;5.40;99.90;;;;;;5038997;28;20040;-44
2023/04/13 04:24:58;;;;;;;5.53;3.10;;;5.40;99.90;;;;;;5028886;28;20045;-43
2023/04/13 04:27:25;;;;;;;4.80;2.75;;;5.40;99.90;;;;;;5039772;28;20045;-36
2023/04/13 04:29:58;;;;;;;3.70;3.03;;;5.40;99.90;;;;;;5040135;28;20431;-35
2023/04/13 04:32:24;;;;;;;6.55;3.67;;;5.40;99.90;;;;;;5039893;28;20052;-38
2023/04/13 04:34:52;;;;;;;6.07;3.80;;;5.30;99.90;;;;;;5039643;28;20033;-41
2023/04/13 04:37:22;;;;;;;6.03;3.88;;;5.30;99.90;;;;;;5038654;28;20040;-44
2023/04/13 04:39:47;;;;;;;6.10;3.95;;;5.30;99.90;;;;;;5038757;28;20084;-43
2023/04/13 04:42:14;;;;;;;5.47;3.72;;;5.30;99.90;;;;;;5033498;28;20457;-42
2023/04/13 04:44:39;;;;;;;5.70;4.35;;;5.20;99.90;;;;;;5031980;28;20040;-36
2023/04/13 04:47:05;;;;;;;6.78;4.20;;;5.20;99.90;;;;;;5048015;28;20068;-41
2023/04/13 04:49:32;;;;;;;8.93;4.55;;;5.10;99.90;;;;;;5030301;28;20103;-43
2023/04/13 04:51:58;;;;;;;8.25;5.53;;;5.10;99.90;;;;;;5052124;28;20045;-44
2023/04/13 04:54:24;;;;;;;6.50;5.03;;;5.10;99.90;;;;;;5029298;28;20029;-36
2023/04/13 04:56:51;;;;;;;9.85;6.45;;;5.20;99.90;;;;;;5035780;28;20557;-42
2023/04/13 04:59:18;;;;;;;6.22;5.63;;;5.20;99.90;;;;;;5049595;28;20042;-40
2023/04/13 05:01:44;;;;;;;9.70;5.78;;;5.30;99.90;;;;;;5037009;28;20387;-37
2023/04/13 05:04:10;;;;;;;10.60;6.45;;;5.40;99.90;;;;;;5054506;28;20468;-36
2023/04/13 05:06:40;;;;;;;8.63;5.78;;;5.40;99.90;;;;;;5023794;28;20126;-44
2023/04/13 05:09:06;;;;;;;9.35;6.25;;;5.40;99.90;;;;;;5039379;28;20065;-40
2023/04/13 05:11:32;;;;;;;9.32;5.97;;;5.40;99.90;;;;;;5038510;28;20557;-38
2023/04/13 05:13:59;;;;;;;8.38;5.45;;;5.40;99.90;;;;;;5039583;28;20164;-40
2023/04/13 05:16:24;;;;;;;10.07;5.38;;;5.50;99.90;;;;;;5038935;28;20041;-36
2023/04/13 05:18:50;;;;;;;10.15;5.38;;;5.50;99.90;;;;;;5038542;28;20122;-37
2023/04/13 05:21:17;;;;;;;9.75;4.15;;;5.60;99.90;;;;;;5038390;28;20067;-41
2023/04/13 05:23:43;;;;;;;10.52;5.07;;;5.80;99.90;;;;;;5039322;28;20073;-41
2023/04/13 05:26:11;;;;;;;9.65;4.20;;;6.10;99.90;;;;;;5038404;28;20102;-39
2023/04/13 05:28:37;;;;;;;7.40;3.72;;;6.70;99.90;;;;;;5039550;28;20053;-40
2023/04/13 05:31:05;;;;;;;9.68;3.70;;;7.40;99.90;;;;;;5036977;28;20072;-36
2023/04/13 05:33:33;;;;;;;11.40;3.35;;;8.00;99.90;;;;;;5024023;28;20057;-43
2023/04/13 05:35:59;;;;;;;7.25;2.92;;;8.30;99.90;;;;;;5024581;28;20045;-40
2023/04/13 05:38:24;;;;;;;7.15;2.63;;;8.10;99.90;;;;;;5037385;28;20147;-39
2023/04/13 05:40:53;;;;;;;7.93;2.75;;;7.80;99.90;;;;;;5037804;28;20045;-37
2023/04/13 05:43:19;;;;;;;5.25;2.50;;;7.40;99.90;;;;;;5024071;28;20041;-42
2023/04/13 05:45:45;;;;;;;6.45;2.42;;;7.00;99.90;;;;;;5031845;28;20589;-38
2023/04/13 05:48:11;;;;;;;7.97;3.10;;;6.80;99.90;;;;;;5017937;28;20049;-43
2023/04/13 05:50:37;;;;;;;7.55;2.33;;;6.60;99.90;;;;;;5037996;28;20550;-42
2023/04/13 05:53:04;;;;;;;6.05;2.30;;;6.50;99.90;;;;;;5037568;28;20055;-39
2023/04/13 05:55:31;;;;;;;5.85;2.00;;;6.40;99.90;;;;;;5038172;28;20492;-36
2023/04/13 05:57:56;;;;;;;6.00;1.77;;;6.30;99.90;;;;;;5037306;28;20044;-39
2023/04/13 06:00:22;;;;;;;7.68;2.70;;;6.30;99.90;;;;;;5031322;28;20053;-42
2023/04/13 06:02:49;;;;;;;7.68;3.00;;;6.20;99.90;;;;;;5037789;28;20519;-43
2023/04/13 06:05:16;;;;;;;7.72;2.65;;;6.20;99.90;;;;;;5038357;28;20045;-39
2023/04/13 06:07:45;;;;;;;7.25;3.40;;;6.20;99.90;;;;;;5037759;28;20041;-36
2023/04/13 06:10:15;;;;;;;6.15;3.30;;;6.20;99.90;;;;;;5031246;28;20049;-36
2023/04/13 06:12:41;;;;;;;18.38;4.25;;;6.20;99.90;;;;;;5032255;28;20644;-37
2023/04/13 06:15:08;;;;;;;8.45;3.78;;;6.20;99.90;;;;;;5038276;28;20044;-45
2023/04/13 06:17:34;;;;;;;11.00;3.65;;;6.30;99.90;;;;;;5024125;28;20499;-38
2023/04/13 06:20:00;;;;;;;7.90;3.42;;;6.30;99.90;;;;;;5030160;28;20041;-42
2023/04/13 06:22:26;;;;;;;10.82;3.65;;;6.30;99.90;;;;;;5032304;28;20048;-45
2023/04/13 06:24:52;;;;;;;9.75;3.67;;;6.40;99.90;;;;;;5037005;28;20462;-42
2023/04/13 06:27:18;;;;;;;13.38;4.13;;;6.40;99.90;;;;;;5052242;28;20120;-45
2023/04/13 06:29:44;;;;;;;8.20;3.90;;;6.40;99.90;;;;;;5038008;28;20122;-43
2023/04/13 06:32:10;;;;;;;9.35;4.20;;;6.40;99.90;;;;;;5037094;28;20420;-36
2023/04/13 06:34:36;;;;;;;11.57;4.75;;;6.90;99.90;;;;;;5038081;28;20465;-41
2023/04/13 06:37:02;;;;;;;9.38;3.50;;;7.90;99.90;;;;;;5036887;28;20048;-36
2023/04/13 06:39:28;;;;;;;11.10;2.88;;;8.30;99.90;;;;;;5025269;28;20340;-42
2023/04/13 06:41:55;;;;;;;10.38;2.95;;;8.40;99.90;;;;;;5037564;28;20442;-36
2023/04/13 06:44:20;;;;;;;12.80;2.70;;;9.10;99.90;;;;;;5045001;28;20091;-44
2023/04/13 06:46:46;;;;;;;8.85;2.97;;;9.40;99.90;;;;;;5029992;28;20123;-45
2023/04/13 06:49:12;;;;;;;11.40;2.95;;;9.90;99.90;;;;;;5052067;28;20238;-36
2023/04/13 06:51:38;;;;;;;9.10;2.20;;;10.40;99.90;;;;;;5024734;28;20159;-41
2023/04/13 06:54:04;;;;;;;9.38;2.10;;;10.10;99.90;;;;;;5037766;28;20572;-44
2023/04/13 06:56:30;;;;;;;10.43;2.38;;;9.80;99.90;;;;;;5034840;28;20131;-36
2023/04/13 06:58:59;;;;;;;4.78;2.00;;;9.80;99.90;;;;;;5034495;28;20117;-45
2023/04/13 07:01:26;;;;;;;7.72;2.13;;;10.00;99.90;;;;;;5025695;28;20387;-45
2023/04/13 07:03:52;;;;;;;6.82;2.17;;;9.80;99.90;;;;;;5036939;28;20051;-42
2023/04/13 07:06:18;;;;;;;14.00;2.83;;;9.40;99.90;;;;;;5023297;28;20068;-44
2023/04/13 07:08:43;;;;;;;7.97;2.40;;;9.20;99.90;;;;;;5036886;28;20083;-43
2023/04/13 07:11:09;;;;;;;6.03;2.10;;;8.90;99.90;;;;;;5032972;28;20441;-38
2023/04/13 07:13:35;;;;;;;8.27;2.65;;;8.60;99.90;;;;;;5034840;28;20534;-36
2023/04/13 07:16:01;;;;;;;5.93;2.28;;;8.50;99.90;;;;;;5032451;28;20046;-40
2023/04/13 07:18:27;;;;;;;5.78;2.33;;;8.40;99.90;;;;;;5032211;28;20387;-36
2023/04/13 07:20:52;;;;;;;6.90;2.35;;;8.30;99.90;;;;;;5030683;28;20107;-44
2023/04/13 07:23:18;;;;;;;11.30;2.55;;;8.40;99.90;;;;;;5035279;28;20045;-42
2023/04/13 07:25:44;;;;;;;7.50;2.70;;;8.90;99.90;;;;;;5024540;28;20349;-45
2023/04/13 07:28:10;;;;;;;6.35;2.58;;;9.10;99.90;;;;;;5033081;28;20044;-43
2023/04/13 07:30:36;;;;;;;8.90;2.38;;;9.00;99.90;;;;;;5037559;28;20059;-44
2023/04/13 07:33:01;;;;;;;4.90;2.30;;;9.00;99.90;;;;;;5047298;28;20389;-40
2023/04/13 07:35:27;;;;;;;7.57;2.10;;;8.80;99.90;;;;;;5030914;28;20519;-43
2023/04/13 07:37:53;;;;;;;8.88;1.95;;;8.80;99.90;;;;;;5030988;28;20823;-42
2023/04/13 07:40:18;;;;;;;6.30;2.13;;;8.80;99.90;;;;;;5033671;28;20045;-41
2023/04/13 07:42:46;;;;;;;8.35;1.73;;;8.70;99.90;;;;;;5031705;28;20045;-42
2023/04/13 07:45:12;;;;;;;4.85;1.80;;;8.50;99.90;;;;;;5036038;28;20052;-38
2023/04/13 07:47:38;;;;;;;5.00;1.40;;;8.50;99.90;;;;;;5040359;28;20146;-39
2023/04/13 07:50:05;;;;;;;4.10;1.10;;;8.60;99.90;;;;;;5039019;28;20049;-40
2023/04/13 07:52:31;;;;;;;4.22;1.20;;;8.80;99.90;;;;;;5033072;28;20037;-37
2023/04/13 07:54:56;;;;;;;7.68;1.80;;;9.20;99.90;;;;;;5039407;28;20145;-40
2023/04/13 07:57:22;;;;;;;5.97;1.52;;;9.80;99.90;;;;;;5040136;28;20151;-48
2023/04/13 07:59:48;;;;;;;5.95;2.00;;;10.00;99.90;;;;;;5040040;28;20142;-42
2023/04/13 08:02:15;;;;;;;5.03;1.63;;;10.00;99.90;;;;;;5055904;28;20053;-43
2023/04/13 08:04:43;;;;;;;6.60;1.50;;;9.70;99.90;;;;;;5039925;28;20499;-41
2023/04/13 08:07:09;;;;;;;6.63;1.60;;;9.30;99.90;;;;;;5038006;28;20052;-40
2023/04/13 08:09:35;;;;;;;5.20;1.70;;;9.00;99.90;;;;;;5041796;28;20485;-40
2023/04/13 08:12:04;;;;;;;4.18;1.58;;;8.70;99.90;;;;;;5028883;28;20376;-38
2023/04/13 08:14:30;;;;;;;7.65;1.50;;;8.50;99.90;;;;;;5038576;28;21162;-43
2023/04/13 08:16:55;;;;;;;6.22;1.88;;;8.80;99.90;;;;;;5030454;28;20056;-42
2023/04/13 08:19:21;;;;;;;7.22;1.60;;;9.30;99.90;;;;;;5022283;28;20083;-40
2023/04/13 08:21:47;;;;;;;4.95;1.30;;;9.60;99.90;;;;;;5039827;28;20040;-49
2023/04/13 08:24:13;;;;;;;4.75;1.60;;;9.70;99.90;;;;;;5028158;28;20064;-44
2023/04/13 08:26:38;;;;;;;5.75;1.73;;;9.50;99.90;;;;;;5035241;28;20041;-42
2023/04/13 08:29:04;;;;;;;6.50;1.60;;;9.30;99.90;;;;;;5027960;28;21138;-38
2023/04/13 08:31:31;;;;;;;3.58;1.42;;;9.10;99.90;;;;;;5028305;28;20408;-37
2023/04/13 08:33:56;;;;;;;4.50;1.30;;;9.10;99.90;;;;;;5030545;28;20103;-39
2023/04/13 08:36:22;;;;;;;5.88;1.30;;;9.40;99.90;;;;;;5039524;28;20582;-42
2023/04/13 08:38:48;;;;;;;5.90;1.30;;;10.00;99.90;;;;;;5033994;28;20048;-41
2023/04/13 08:41:16;;;;;;;5.80;1.70;;;10.60;99.90;;;;;;5029430;28;20131;-39
2023/04/13 08:43:45;;;;;;;5.13;2.40;;;11.10;99.90;;;;;;5029155;28;20095;-40
2023/04/13 08:46:18;;;;;;;2.08;0.90;;;11.40;99.90;;;;;;5035497;28;20049;-46
2023/04/13 08:48:45;;;;;;;4.45;1.33;;;11.20;99.90;;;;;;5026670;28;21029;-41
2023/04/13 08:51:13;;;;;;;3.95;2.20;;;11.10;99.90;;;;;;5035887;28;20053;-43
2023/04/13 08:53:39;;;;;;;3.92;1.70;;;10.90;99.90;;;;;;5036673;28;20556;-45
2023/04/13 08:56:09;;;;;;;6.13;1.58;;;10.70;99.90;;;;;;5036899;28;20271;-38
2023/04/13 08:58:36;;;;;;;8.90;1.50;;;10.70;99.90;;;;;;5037739;28;20507;-40
2023/04/13 09:01:05;;;;;;;5.40;1.40;;;10.50;99.90;;;;;;5038674;28;20040;-36
2023/04/13 09:03:39;;;;;;;6.50;1.75;;;10.20;99.90;;;;;;5038013;28;20037;-40
2023/04/13 09:06:09;;;;;;;4.82;1.10;;;10.00;99.90;;;;;;5037316;28;20056;-44
2023/04/13 09:08:35;;;;;;;5.00;1.02;;;9.50;99.90;;;;;;5039626;28;20056;-39
2023/04/13 09:11:01;;;;;;;2.85;1.10;;;9.00;99.90;;;;;;5038101;28;20490;-39
2023/04/13 09:13:28;;;;;;;2.05;1.15;;;8.60;99.90;;;;;;5026792;28;20052;-37
2023/04/13 09:15:54;;;;;;;2.80;1.23;;;8.40;99.90;;;;;;5024999;28;20061;-37
2023/04/13 09:18:19;;;;;;;2.42;0.90;;;8.30;99.90;;;;;;5031750;28;20049;-46
2023/04/13 09:20:59;;;;;;;4.38;2.72;;;8.20;99.90;;;;;;5032449;28;20045;-42
2023/04/13 09:23:25;;;;;;;6.28;1.65;;;8.00;99.90;;;;;;5039285;28;20539;-37
2023/04/13 09:26:07;;;;;;;2.58;1.10;;;7.80;99.90;;;;;;5053870;28;20459;-40
2023/04/13 09:28:32;;;;;;;2.75;1.33;;;7.80;99.90;;;;;;5039087;28;20480;-38
2023/04/13 09:31:04;;;;;;;2.65;1.52;;;7.90;99.90;;;;;;5035066;28;20071;-48
2023/04/13 09:33:34;;;;;;;4.00;1.73;;;8.10;99.90;;;;;;5038658;28;20538;-44
2023/04/13 09:36:09;;;;;;;5.40;3.30;;;8.10;99.90;;;;;;5026322;28;20592;-40
2023/04/13 09:38:35;;;;;;;5.70;4.47;;;8.10;99.90;;;;;;5038141;28;20073;-43
2023/04/13 09:41:00;;;;;;;8.15;7.45;;;8.00;99.90;;;;;;5038755;28;20045;-40
2023/04/13 09:43:37;;;;;;;6.00;5.40;;;8.00;99.90;;;;;;5053869;28;20399;-46
2023/04/13 09:46:04;;;;;;;3.17;1.67;;;8.00;99.90;;;;;;5027017;28;20049;-40
2023/04/13 09:48:30;;;;;;;4.32;3.08;;;8.10;99.90;;;;;;5038568;28;20032;-37
2023/04/13 09:51:00;;;;;;;7.82;6.65;;;8.20;99.90;;;;;;5053184;28;20565;-45
2023/04/13 09:53:29;;;;;;;12.15;7.55;;;8.30;99.90;;;;;;5038107;28;20666;-47
2023/04/13 09:55:58;;;;;;;8.38;4.88;;;8.30;99.90;;;;;;5038170;28;20053;-42
2023/04/13 09:58:25;;;;;;;7.13;3.50;;;8.30;99.90;;;;;;5038430;28;20475;-37
2023/04/13 10:00:52;;;;;;;6.70;1.35;;;8.10;99.90;;;;;;5038522;28;20063;-42
2023/04/13 10:03:19;;;;;;;5.25;1.50;;;8.00;99.90;;;;;;5053245;28;20052;-44
2023/04/13 10:05:46;;;;;;;4.53;1.42;;;7.90;99.90;;;;;;5037527;28;20202;-40
2023/04/13 10:08:12;;;;;;;3.72;1.40;;;7.90;99.90;;;;;;5036728;28;20080;-42
2023/04/13 10:10:38;;;;;;;2.33;1.25;;;8.00;99.90;;;;;;5036597;28;20056;-42
2023/04/13 10:13:16;;;;;;;5.80;1.42;;;8.40;99.90;;;;;;5036790;28;20072;-40
2023/04/13 10:15:53;;;;;;;3.03;1.20;;;8.80;99.90;;;;;;5035071;28;20056;-41
2023/04/13 10:18:46;;;;;;;4.45;2.40;;;8.90;99.90;;;;;;5030035;28;20129;-37
2023/04/13 10:21:15;;;;;;;12.77;7.70;;;9.20;99.90;;;;;;5035957;28;20060;-36
2023/04/13 10:23:42;;;;;;;10.05;4.32;;;9.60;99.90;;;;;;5037448;28;20052;-41
2023/04/13 10:26:08;;;;;;;13.85;6.18;;;9.70;99.90;;;;;;5031510;28;20067;-37
2023/04/13 10:28:45;;;;;;;15.77;6.35;;;10.00;99.90;;;;;;5037404;28;20044;-43
2023/04/13 10:31:11;;;;;;;15.25;4.53;;;9.90;99.90;;;;;;5033428;28;20087;-42
2023/04/13 10:33:47;;;;;;;23.55;13.88;;;9.80;99.90;;;;;;5026884;28;20519;-46
2023/04/13 10:36:13;;;;;;;27.88;16.10;;;9.80;99.90;;;;;;5033253;28;20049;-37
2023/04/13 10:38:42;;;;;;;25.85;16.63;;;9.90;99.90;;;;;;5032018;28;20041;-44
2023/04/13 10:41:08;;;;;;;34.17;17.67;;;10.10;99.90;;;;;;5026233;28;20045;-37
2023/04/13 10:43:34;;;;;;;20.88;8.77;;;10.20;99.90;;;;;;5033363;28;21278;-42
2023/04/13 10:46:10;;;;;;;46.08;35.08;;;10.10;99.90;;;;;;5026601;28;20120;-36
2023/04/13 10:48:36;;;;;;;45.03;30.77;;;10.00;99.90;;;;;;5036904;28;20128;-40
2023/04/13 10:51:02;;;;;;;18.95;7.63;;;10.10;99.90;;;;;;5037208;28;20045;-38
2023/04/13 10:53:29;;;;;;;32.20;20.92;;;10.00;99.90;;;;;;5036926;28;20075;-39
2023/04/13 10:55:58;;;;;;;15.68;6.28;;;9.90;99.90;;;;;;5036231;28;20053;-40
2023/04/13 10:58:27;;;;;;;16.83;5.05;;;10.00;99.90;;;;;;5050639;28;20549;-41
2023/04/13 11:00:53;;;;;;;19.10;4.88;;;10.00;99.90;;;;;;5032492;28;20472;-40
2023/04/13 11:03:20;;;;;;;17.38;4.80;;;10.20;99.90;;;;;;5033376;28;20510;-42
2023/04/13 11:05:56;;;;;;;21.95;4.25;;;10.40;99.90;;;;;;5032129;28;20501;-38
2023/04/13 11:08:23;;;;;;;14.68;4.05;;;10.60;99.90;;;;;;5030205;28;20085;-48
2023/04/13 11:10:52;;;;;;;9.50;3.47;;;10.50;99.90;;;;;;5032223;28;20523;-45
2023/04/13 11:13:18;;;;;;;17.50;3.50;;;10.40;99.90;;;;;;5031985;28;20059;-47
2023/04/13 11:15:45;;;;;;;11.70;3.53;;;10.20;99.90;;;;;;5035881;28;20048;-43
2023/04/13 11:18:11;;;;;;;15.27;3.65;;;10.20;99.90;;;;;;5021647;28;20049;-44
2023/04/13 11:20:40;;;;;;;12.45;3.33;;;10.20;99.90;;;;;;5032472;28;20265;-45
2023/04/13 11:23:17;;;;;;;17.33;3.33;;;10.50;99.90;;;;;;5051094;28;20399;-37
2023/04/13 11:25:58;;;;;;;15.52;3.58;;;10.70;99.90;;;;;;5034766;28;20491;-40
2023/04/13 11:28:39;;;;;;;18.77;3.75;;;10.70;99.90;;;;;;5037076;28;20049;-42
2023/04/13 11:31:06;;;;;;;16.88;4.88;;;10.60;99.90;;;;;;5036294;28;20411;-39
2023/04/13 11:33:33;;;;;;;12.52;3.33;;;10.60;99.90;;;;;;5025241;28;20056;-46
2023/04/13 11:35:59;;;;;;;14.55;3.33;;;10.70;99.90;;;;;;5026584;28;20076;-47
2023/04/13 11:38:26;;;;;;;14.63;4.10;;;10.70;99.90;;;;;;5031799;28;20045;-44
2023/04/13 11:40:59;;;;;;;12.00;3.33;;;10.80;99.90;;;;;;5034330;28;20076;-43
2023/04/13 11:43:24;;;;;;;8.52;2.88;;;11.10;99.90;;;;;;5033169;28;20049;-38
2023/04/13 11:45:51;;;;;;;10.68;3.10;;;11.30;99.90;;;;;;5032110;28;20037;-40
2023/04/13 11:48:18;;;;;;;13.05;3.55;;;11.40;99.90;;;;;;5052177;28;20108;-43
2023/04/13 11:50:44;;;;;;;10.68;2.55;;;11.40;99.90;;;;;;5030456;28;20056;-49
2023/04/13 11:53:10;;;;;;;15.70;10.63;;;11.20;99.90;;;;;;5030283;28;20044;-43
2023/04/13 11:55:38;;;;;;;20.23;12.05;;;11.00;99.90;;;;;;5023035;28;20037;-40
2023/04/13 11:58:15;;;;;;;24.20;11.52;;;10.70;99.90;;;;;;5021938;28;20064;-51
2023/04/13 12:00:42;;;;;;;15.40;3.63;;;10.50;99.90;;;;;;5036070;28;20485;-41
2023/04/13 12:03:16;;;;;;;19.00;4.15;;;10.40;99.90;;;;;;5036405;28;20119;-39
2023/04/13 12:05:43;;;;;;;14.30;4.75;;;10.50;99.90;;;;;;5036017;28;20374;-40
2023/04/13 12:08:18;;;;;;;20.65;4.60;;;10.50;99.90;;;;;;5023016;28;20575;-49
2023/04/13 12:10:44;;;;;;;25.30;4.95;;;10.40;99.90;;;;;;5036448;28;20048;-45
2023/04/13 12:13:12;;;;;;;18.40;4.50;;;10.40;99.90;;;;;;5035911;28;20499;-39
2023/04/13 12:15:44;;;;;;;13.45;4.10;;;10.30;99.90;;;;;;5036155;28;20084;-38
2023/04/13 12:18:12;;;;;;;16.27;3.73;;;10.20;99.90;;;;;;5035932;28;20474;-38
2023/04/13 12:20:42;;;;;;;25.52;4.32;;;10.10;99.90;;;;;;5035663;28;20095;-38
2023/04/13 12:23:22;;;;;;;14.68;3.83;;;10.10;99.90;;;;;;5035249;28;20043;-37
2023/04/13 12:25:57;;;;;;;18.13;4.20;;;10.10;99.90;;;;;;5025939;28;20136;-47
2023/04/13 12:28:29;;;;;;;16.83;4.95;;;10.10;99.90;;;;;;5034596;28;20102;-44
2023/04/13 12:31:05;;;;;;;20.42;4.30;;;10.20;99.90;;;;;;5042254;28;20059;-38
2023/04/13 12:33:30;;;;;;;11.23;3.35;;;10.20;99.90;;;;;;5039788;28;20045;-38
2023/04/13 12:35:56;;;;;;;16.60;3.72;;;10.40;99.90;;;;;;5054290;28;20448;-47
2023/04/13 12:38:23;;;;;;;22.77;3.58;;;10.50;99.90;;;;;;5040202;28;20538;-47
2023/04/13 12:40:57;;;;;;;24.38;4.68;;;10.70;99.90;;;;;;5021544;28;20049;-44
2023/04/13 12:43:23;;;;;;;16.27;4.03;;;10.90;99.90;;;;;;5033117;28;20492;-38
2023/04/13 12:45:49;;;;;;;10.40;3.05;;;11.00;99.90;;;;;;5039147;28;20041;-40
2023/04/13 12:48:15;;;;;;;19.90;3.75;;;11.00;99.90;;;;;;5026377;28;20053;-42
2023/04/13 12:50:41;;;;;;;10.25;2.80;;;11.00;99.90;;;;;;5027803;28;20045;-38
2023/04/13 12:53:07;;;;;;;16.15;2.88;;;11.40;99.90;;;;;;5038899;28;20401;-45
2023/04/13 12:55:32;;;;;;;15.40;3.05;;;11.50;99.90;;;;;;5036467;28;20182;-42